createdAt,value
2018-09-27T00:01:04.457Z,6.50
2018-09-27T00:03:32.605Z,6.37
2018-09-27T00:06:00.692Z,6.13
2018-09-27T00:08:28.795Z,5.97
2018-09-27T00:10:56.888Z,6.67
2018-09-27T00:13:24.965Z,7.00
2018-09-27T00:15:53.058Z,6.67
2018-09-27T00:18:21.177Z,7.95
2018-09-27T00:20:49.280Z,8.67
2018-09-27T00:23:17.411Z,12.83
2018-09-27T00:25:45.502Z,11.77
2018-09-27T00:28:13.598Z,16.53
2018-09-27T00:30:41.750Z,17.25
2018-09-27T00:33:09.836Z,16.17
2018-09-27T00:35:37.928Z,16.02
2018-09-27T00:38:06.035Z,16.00
2018-09-27T00:40:34.106Z,15.20
2018-09-27T00:43:02.190Z,11.97
2018-09-27T00:45:38.627Z,11.43
2018-09-27T00:48:06.717Z,11.77
2018-09-27T00:50:34.835Z,9.48
2018-09-27T00:53:02.912Z,9.13
2018-09-27T00:55:31.016Z,8.03
2018-09-27T00:57:59.121Z,8.40
2018-09-27T01:00:27.213Z,7.70
2018-09-27T01:02:55.374Z,8.20
2018-09-27T01:05:23.478Z,6.85
2018-09-27T01:07:51.607Z,6.70
2018-09-27T01:10:19.774Z,6.03
2018-09-27T01:12:47.913Z,5.50
2018-09-27T01:15:16.110Z,5.40
2018-09-27T01:17:44.223Z,5.22
2018-09-27T01:20:12.310Z,5.62
2018-09-27T01:22:40.400Z,5.90
2018-09-27T01:25:08.593Z,5.20
2018-09-27T01:27:36.711Z,5.70
2018-09-27T01:30:05.359Z,5.45
2018-09-27T01:32:33.461Z,5.10
2018-09-27T01:35:01.590Z,6.40
2018-09-27T01:37:29.682Z,6.40
2018-09-27T01:39:57.803Z,5.37
2018-09-27T01:42:25.915Z,4.67
2018-09-27T01:44:54.033Z,4.80
2018-09-27T01:47:22.879Z,5.22
2018-09-27T01:49:50.998Z,5.60
2018-09-27T01:52:19.071Z,6.10
2018-09-27T01:54:47.198Z,4.87
2018-09-27T01:57:15.297Z,4.55
2018-09-27T01:59:43.397Z,5.20
2018-09-27T02:02:11.500Z,5.20
2018-09-27T02:04:39.582Z,4.73
2018-09-27T02:07:07.678Z,5.20
2018-09-27T02:09:35.765Z,5.22
2018-09-27T02:12:03.859Z,4.83
2018-09-27T02:14:31.955Z,5.95
2018-09-27T02:17:00.061Z,5.90
2018-09-27T02:19:28.187Z,5.33
2018-09-27T02:21:56.282Z,5.33
2018-09-27T02:24:24.396Z,5.20
2018-09-27T02:26:52.502Z,8.73
2018-09-27T02:29:20.635Z,4.97
2018-09-27T02:31:48.746Z,6.50
2018-09-27T02:34:16.826Z,6.40
2018-09-27T02:36:44.919Z,5.90
2018-09-27T02:39:13.018Z,6.40
2018-09-27T02:41:41.151Z,5.90
2018-09-27T02:44:09.260Z,7.10
2018-09-27T02:46:37.370Z,6.57
2018-09-27T02:49:05.465Z,6.77
2018-09-27T02:51:33.575Z,6.80
2018-09-27T02:54:01.695Z,6.53
2018-09-27T02:56:29.810Z,7.80
2018-09-27T02:58:57.896Z,6.63
2018-09-27T03:01:26.008Z,6.57
2018-09-27T03:03:54.102Z,7.70
2018-09-27T03:06:22.189Z,6.80
2018-09-27T03:08:50.270Z,6.50
2018-09-27T03:11:18.406Z,7.40
2018-09-27T03:13:46.513Z,7.55
2018-09-27T03:16:14.576Z,6.40
2018-09-27T03:18:42.676Z,7.00
2018-09-27T03:21:10.778Z,7.13
2018-09-27T03:23:39.014Z,8.15
2018-09-27T03:26:07.099Z,8.23
2018-09-27T03:28:35.189Z,7.80
2018-09-27T03:31:03.265Z,8.60
2018-09-27T03:33:31.396Z,8.00
2018-09-27T03:35:59.508Z,7.75
2018-09-27T03:38:27.599Z,8.03
2018-09-27T03:40:55.702Z,7.60
2018-09-27T03:43:23.788Z,8.50
2018-09-27T03:45:51.859Z,7.90
2018-09-27T03:48:19.963Z,8.35
2018-09-27T03:50:48.046Z,8.18
2018-09-27T03:53:16.164Z,9.50
2018-09-27T03:55:44.262Z,8.33
2018-09-27T03:58:12.366Z,8.38
2018-09-27T04:00:40.453Z,8.48
2018-09-27T04:03:08.596Z,9.15
2018-09-27T04:05:36.664Z,9.03
2018-09-27T04:08:04.831Z,8.70
2018-09-27T04:10:32.941Z,8.20
2018-09-27T04:13:01.276Z,8.88
2018-09-27T04:15:29.390Z,8.88
2018-09-27T04:17:57.466Z,9.33
2018-09-27T04:20:25.547Z,8.83
2018-09-27T04:22:53.639Z,7.90
2018-09-27T04:25:21.748Z,9.80
2018-09-27T04:27:49.936Z,8.98
2018-09-27T04:30:18.046Z,8.87
2018-09-27T04:32:46.147Z,9.70
2018-09-27T04:35:14.218Z,8.73
2018-09-27T04:37:42.313Z,9.53
2018-09-27T04:40:10.420Z,10.10
2018-09-27T04:42:38.497Z,8.00
2018-09-27T04:45:06.587Z,9.23
2018-09-27T04:47:34.681Z,9.27
2018-09-27T04:50:02.769Z,8.93
2018-09-27T04:52:30.842Z,8.23
2018-09-27T04:54:58.959Z,9.63
2018-09-27T04:57:27.444Z,10.13
2018-09-27T04:59:55.611Z,9.90
2018-09-27T05:02:23.680Z,10.65
2018-09-27T05:04:51.796Z,9.10
2018-09-27T05:07:19.898Z,10.30
2018-09-27T05:09:47.989Z,10.30
2018-09-27T05:12:16.075Z,10.73
2018-09-27T05:14:44.184Z,10.70
2018-09-27T05:17:12.298Z,12.70
2018-09-27T05:19:40.400Z,10.33
2018-09-27T05:22:08.503Z,11.67
2018-09-27T05:24:36.610Z,13.00
2018-09-27T05:27:04.703Z,11.17
2018-09-27T05:29:32.780Z,12.77
2018-09-27T05:32:00.864Z,12.40
2018-09-27T05:34:28.964Z,13.63
2018-09-27T05:36:57.064Z,12.00
2018-09-27T05:39:25.186Z,12.90
2018-09-27T05:41:53.250Z,12.80
2018-09-27T05:44:21.342Z,13.40
2018-09-27T05:46:50.075Z,11.65
2018-09-27T05:49:18.216Z,12.73
2018-09-27T05:51:46.312Z,13.00
2018-09-27T05:54:14.438Z,13.57
2018-09-27T05:56:42.528Z,12.55
2018-09-27T05:59:10.652Z,12.58
2018-09-27T06:01:38.715Z,13.50
2018-09-27T06:04:06.811Z,13.40
2018-09-27T06:06:34.934Z,12.73
2018-09-27T06:09:03.119Z,13.90
2018-09-27T06:11:31.288Z,15.40
2018-09-27T06:13:59.351Z,15.30
2018-09-27T06:16:27.463Z,14.47
2018-09-27T06:18:55.559Z,14.93
2018-09-27T06:21:29.451Z,15.27
2018-09-27T06:23:57.532Z,16.37
2018-09-27T06:26:25.721Z,14.65
2018-09-27T06:28:53.802Z,14.30
2018-09-27T06:31:21.902Z,14.83
2018-09-27T06:33:50.023Z,15.60
2018-09-27T06:36:18.132Z,14.33
2018-09-27T06:38:46.249Z,13.70
2018-09-27T06:41:14.339Z,15.83
2018-09-27T06:43:42.504Z,16.02
2018-09-27T06:46:10.614Z,15.80
2018-09-27T06:48:38.733Z,16.85
2018-09-27T06:51:06.524Z,15.83
2018-09-27T06:53:34.668Z,16.10
2018-09-27T06:56:02.831Z,15.83
2018-09-27T06:58:30.868Z,16.30
2018-09-27T07:00:59.310Z,15.10
2018-09-27T07:03:27.348Z,15.20
2018-09-27T07:05:55.435Z,16.83
2018-09-27T07:08:23.578Z,16.57
2018-09-27T07:10:51.619Z,15.03
2018-09-27T07:13:19.692Z,16.67
2018-09-27T07:15:47.797Z,17.00
2018-09-27T07:18:15.897Z,17.63
2018-09-27T07:20:44.030Z,17.47
2018-09-27T07:23:12.128Z,18.70
2018-09-27T07:25:40.322Z,20.97
2018-09-27T07:28:08.395Z,19.30
2018-09-27T07:30:36.490Z,18.43
2018-09-27T07:33:04.607Z,21.13
2018-09-27T07:35:32.671Z,19.87
2018-09-27T07:38:00.771Z,20.57
2018-09-27T07:40:28.954Z,20.90
2018-09-27T07:42:57.045Z,20.43
2018-09-27T07:45:25.147Z,20.97
2018-09-27T07:47:53.284Z,21.20
2018-09-27T07:50:21.471Z,21.62
2018-09-27T07:52:49.537Z,19.82
2018-09-27T07:55:17.615Z,19.37
2018-09-27T07:57:45.726Z,19.97
2018-09-27T08:00:13.859Z,20.80
2018-09-27T08:02:42.061Z,16.80
2018-09-27T08:05:10.059Z,17.87
2018-09-27T08:07:38.183Z,17.77
2018-09-27T08:10:06.283Z,19.47
2018-09-27T08:12:34.361Z,16.40
2018-09-27T08:15:02.447Z,18.27
2018-09-27T08:17:30.655Z,16.70
2018-09-27T08:19:58.751Z,18.77
2018-09-27T08:22:26.850Z,17.20
2018-09-27T08:24:54.962Z,18.20
2018-09-27T08:27:23.077Z,18.50
2018-09-27T08:29:51.320Z,18.53
2018-09-27T08:32:19.409Z,16.43
2018-09-27T08:34:47.491Z,18.57
2018-09-27T08:37:15.569Z,19.27
2018-09-27T08:39:43.639Z,17.83
2018-09-27T08:42:11.736Z,19.20
2018-09-27T08:44:39.911Z,18.60
2018-09-27T08:47:07.974Z,16.57
2018-09-27T08:49:36.106Z,16.53
2018-09-27T08:52:04.207Z,19.50
2018-09-27T08:54:32.321Z,19.00
2018-09-27T08:57:03.819Z,19.00
2018-09-27T08:59:31.912Z,16.60
2018-09-27T09:02:00.016Z,18.47
2018-09-27T09:04:28.145Z,19.50
2018-09-27T09:06:56.195Z,17.80
2018-09-27T09:09:24.334Z,15.63
2018-09-27T09:11:52.410Z,16.37
2018-09-27T09:14:20.513Z,16.07
2018-09-27T09:16:48.613Z,15.50
2018-09-27T09:19:16.710Z,14.93
2018-09-27T09:21:44.844Z,14.57
2018-09-27T09:24:12.887Z,14.33
2018-09-27T09:26:40.958Z,14.30
2018-09-27T09:29:09.035Z,16.03
2018-09-27T09:31:37.131Z,14.00
2018-09-27T09:34:05.250Z,14.70
2018-09-27T09:36:33.323Z,13.93
2018-09-27T09:39:01.408Z,14.20
2018-09-27T09:41:29.494Z,13.18
2018-09-27T09:43:57.566Z,14.15
2018-09-27T09:46:25.651Z,14.60
2018-09-27T09:48:53.774Z,10.78
2018-09-27T09:51:21.903Z,12.98
2018-09-27T09:53:49.994Z,12.48
2018-09-27T09:56:18.106Z,11.08
2018-09-27T09:58:46.183Z,12.90
2018-09-27T10:01:14.299Z,12.10
2018-09-27T10:03:43.418Z,11.20
2018-09-27T10:06:11.600Z,13.27
2018-09-27T10:08:39.723Z,11.65
2018-09-27T10:11:07.943Z,10.15
2018-09-27T10:13:36.092Z,9.07
2018-09-27T10:16:04.304Z,9.53
2018-09-27T10:18:32.387Z,9.77
2018-09-27T10:21:00.539Z,7.77
2018-09-27T10:23:28.639Z,7.70
2018-09-27T10:25:56.739Z,9.57
2018-09-27T10:28:24.815Z,8.47
2018-09-27T10:30:53.010Z,7.45
2018-09-27T10:33:21.234Z,6.60
2018-09-27T10:35:49.484Z,6.90
2018-09-27T10:38:17.596Z,8.73
2018-09-27T10:40:45.735Z,8.97
2018-09-27T10:43:13.839Z,8.80
2018-09-27T10:45:41.984Z,9.67
2018-09-27T10:48:10.106Z,7.30
2018-09-27T10:50:38.212Z,8.10
2018-09-27T10:53:06.847Z,8.28
2018-09-27T10:55:35.003Z,7.30
2018-09-27T10:58:03.104Z,7.63
2018-09-27T11:00:31.215Z,8.80
2018-09-27T11:02:59.286Z,8.27
2018-09-27T11:05:27.510Z,8.67
2018-09-27T11:07:55.489Z,7.53
2018-09-27T11:10:23.591Z,8.00
2018-09-27T11:12:51.703Z,9.43
2018-09-27T11:15:19.840Z,8.98
2018-09-27T11:17:47.956Z,10.47
2018-09-27T11:20:16.042Z,8.23
2018-09-27T11:22:44.161Z,9.73
2018-09-27T11:25:12.262Z,9.30
2018-09-27T11:27:40.451Z,9.30
2018-09-27T11:30:14.021Z,8.00
2018-09-27T11:32:45.000Z,9.35
2018-09-27T11:35:13.479Z,11.25
2018-09-27T11:37:41.604Z,11.33
2018-09-27T11:40:10.463Z,12.95
2018-09-27T11:42:38.901Z,12.58
2018-09-27T11:45:07.550Z,11.55
2018-09-27T11:47:35.651Z,13.40
2018-09-27T11:50:03.886Z,12.23
2018-09-27T11:52:31.867Z,12.80
2018-09-27T11:54:59.975Z,11.30
2018-09-27T11:57:28.065Z,14.17
2018-09-27T11:59:56.200Z,12.77
2018-09-27T12:02:24.283Z,15.10
2018-09-27T12:04:52.479Z,14.63
2018-09-27T12:07:20.622Z,14.47
2018-09-27T12:09:48.766Z,13.67
2018-09-27T12:12:18.007Z,14.03
2018-09-27T12:14:46.122Z,15.03
2018-09-27T12:17:14.223Z,12.50
2018-09-27T12:19:42.420Z,15.07
2018-09-27T12:22:10.532Z,15.60
2018-09-27T12:24:38.671Z,13.53
2018-09-27T12:27:06.807Z,14.30
2018-09-27T12:29:34.924Z,13.63
2018-09-27T12:32:03.034Z,14.43
2018-09-27T12:34:31.149Z,13.80
2018-09-27T12:36:59.295Z,14.17
2018-09-27T12:39:33.807Z,15.53
2018-09-27T12:42:02.018Z,13.90
2018-09-27T12:44:30.037Z,13.60
2018-09-27T12:46:58.245Z,14.50
2018-09-27T12:49:26.396Z,13.00
2018-09-27T12:51:55.593Z,12.63
2018-09-27T12:54:23.658Z,13.90
2018-09-27T12:56:51.775Z,12.70
2018-09-27T12:59:19.876Z,13.07
2018-09-27T13:01:48.095Z,12.80
2018-09-27T13:04:16.115Z,12.70
2018-09-27T13:06:44.251Z,13.43
2018-09-27T13:09:12.455Z,12.67
2018-09-27T13:11:40.770Z,11.87
2018-09-27T13:14:08.675Z,11.80
2018-09-27T13:16:36.787Z,12.40
2018-09-27T13:19:04.962Z,14.53
2018-09-27T13:21:33.295Z,13.80
2018-09-27T13:24:01.237Z,15.23
2018-09-27T13:26:29.443Z,14.28
2018-09-27T13:28:57.516Z,13.68
2018-09-27T13:31:25.673Z,14.73
2018-09-27T13:33:53.836Z,13.65
2018-09-27T13:36:21.971Z,11.55
2018-09-27T13:38:50.178Z,13.10
2018-09-27T13:41:18.287Z,13.90
2018-09-27T13:43:46.443Z,12.95
2018-09-27T13:46:14.596Z,14.83
2018-09-27T13:48:42.724Z,14.70
2018-09-27T13:51:10.840Z,12.50
2018-09-27T13:53:39.580Z,13.93
2018-09-27T13:56:07.696Z,13.40
2018-09-27T13:58:35.854Z,11.80
2018-09-27T14:01:04.023Z,12.37
2018-09-27T14:03:32.133Z,12.77
2018-09-27T14:06:00.259Z,10.00
2018-09-27T14:08:28.359Z,11.93
2018-09-27T14:10:56.483Z,10.90
2018-09-27T14:13:24.615Z,10.38
2018-09-27T14:15:52.727Z,10.23
2018-09-27T14:18:20.863Z,11.15
2018-09-27T14:20:50.133Z,10.00
2018-09-27T14:23:18.287Z,11.70
2018-09-27T14:25:46.459Z,10.87
2018-09-27T14:28:14.514Z,10.80
2018-09-27T14:30:42.679Z,10.10
2018-09-27T14:33:10.725Z,8.57
2018-09-27T14:35:38.872Z,8.50
2018-09-27T14:38:06.944Z,8.70
2018-09-27T14:40:35.078Z,10.93
2018-09-27T14:43:03.200Z,9.70
2018-09-27T14:45:31.371Z,10.17
2018-09-27T14:47:59.661Z,9.73
2018-09-27T14:50:27.605Z,9.00
2018-09-27T14:52:55.687Z,9.50
2018-09-27T14:55:23.815Z,8.90
2018-09-27T14:57:51.944Z,9.53
2018-09-27T15:00:20.064Z,11.10
2018-09-27T15:02:48.183Z,8.90
2018-09-27T15:05:16.317Z,9.77
2018-09-27T15:07:44.779Z,9.50
2018-09-27T15:10:12.924Z,9.57
2018-09-27T15:12:41.218Z,10.18
2018-09-27T15:15:10.196Z,10.27
2018-09-27T15:17:38.927Z,9.45
2018-09-27T15:20:07.129Z,9.08
2018-09-27T15:22:35.356Z,8.60
2018-09-27T15:25:03.491Z,8.60
2018-09-27T15:27:31.615Z,9.28
2018-09-27T15:29:59.712Z,8.60
2018-09-27T15:32:27.788Z,8.28
2018-09-27T15:34:55.899Z,9.10
2018-09-27T15:37:24.040Z,9.60
2018-09-27T15:39:52.180Z,8.90
2018-09-27T15:42:20.331Z,9.77
2018-09-27T15:44:48.443Z,9.20
2018-09-27T15:47:16.532Z,9.70
2018-09-27T15:49:44.635Z,10.63
2018-09-27T15:52:12.793Z,9.03
2018-09-27T15:54:40.924Z,9.13
2018-09-27T15:57:09.056Z,12.78
2018-09-27T15:59:37.147Z,9.63
2018-09-27T16:02:14.409Z,10.60
2018-09-27T16:04:43.258Z,11.90
2018-09-27T16:07:11.346Z,10.70
2018-09-27T16:09:39.475Z,9.47
2018-09-27T16:12:07.706Z,10.80
2018-09-27T16:14:36.226Z,11.00
2018-09-27T16:17:04.299Z,12.13
2018-09-27T16:19:32.459Z,11.40
2018-09-27T16:22:00.584Z,10.30
2018-09-27T16:24:28.659Z,11.00
2018-09-27T16:26:56.791Z,11.07
2018-09-27T16:29:24.929Z,12.40
2018-09-27T16:31:52.958Z,10.27
2018-09-27T16:34:21.063Z,9.93
2018-09-27T16:36:49.182Z,11.10
2018-09-27T16:39:17.285Z,11.70
2018-09-27T16:41:45.487Z,11.87
2018-09-27T16:44:13.579Z,10.10
2018-09-27T16:46:41.753Z,11.57
2018-09-27T16:49:09.828Z,10.13
2018-09-27T16:51:37.915Z,11.40
2018-09-27T16:54:06.066Z,11.08
2018-09-27T16:56:34.208Z,12.60
2018-09-27T16:59:02.318Z,12.97
2018-09-27T17:01:30.413Z,13.93
2018-09-27T17:03:58.540Z,15.00
2018-09-27T17:06:26.654Z,11.90
2018-09-27T17:08:54.783Z,12.95
2018-09-27T17:11:22.872Z,13.98
2018-09-27T17:13:50.966Z,15.78
2018-09-27T17:16:19.057Z,14.70
2018-09-27T17:18:47.397Z,16.65
2018-09-27T17:21:15.494Z,18.07
2018-09-27T17:23:43.995Z,18.73
2018-09-27T17:26:11.887Z,16.45
2018-09-27T17:28:40.009Z,17.30
2018-09-27T17:31:08.499Z,18.87
2018-09-27T17:33:36.611Z,18.70
2018-09-27T17:36:04.722Z,19.37
2018-09-27T17:38:32.802Z,19.10
2018-09-27T17:41:03.578Z,15.63
2018-09-27T17:43:31.679Z,19.77
2018-09-27T17:45:59.777Z,18.67
2018-09-27T17:48:27.879Z,18.70
2018-09-27T17:50:55.983Z,19.87
2018-09-27T17:53:24.240Z,18.40
2018-09-27T17:55:52.315Z,17.87
2018-09-27T17:58:20.461Z,18.53
2018-09-27T18:00:48.567Z,20.00
2018-09-27T18:03:16.660Z,18.53
2018-09-27T18:05:44.818Z,18.70
2018-09-27T18:08:12.920Z,17.80
2018-09-27T18:10:41.038Z,16.67
2018-09-27T18:13:09.135Z,16.30
2018-09-27T18:15:37.263Z,17.50
2018-09-27T18:18:05.383Z,14.90
2018-09-27T18:20:33.495Z,14.23
2018-09-27T18:23:01.641Z,13.43
2018-09-27T18:25:29.778Z,14.13
2018-09-27T18:27:57.859Z,13.90
2018-09-27T18:30:25.926Z,13.97
2018-09-27T18:32:54.058Z,13.57
2018-09-27T18:35:22.212Z,12.47
2018-09-27T18:37:50.379Z,12.53
2018-09-27T18:40:18.457Z,12.77
2018-09-27T18:42:46.508Z,13.07
2018-09-27T18:45:14.647Z,13.20
2018-09-27T18:47:42.743Z,11.67
2018-09-27T18:50:11.097Z,10.90
2018-09-27T18:52:39.190Z,11.33
2018-09-27T18:55:07.642Z,10.27
2018-09-27T18:57:35.783Z,10.40
2018-09-27T19:00:03.949Z,9.30
2018-09-27T19:02:32.039Z,9.40
2018-09-27T19:05:00.165Z,10.10
2018-09-27T19:07:28.215Z,9.85
2018-09-27T19:10:59.618Z,9.90
2018-09-27T19:13:27.670Z,9.10
2018-09-27T19:15:55.723Z,10.50
2018-09-27T19:18:23.774Z,11.00
2018-09-27T19:20:52.225Z,9.13
2018-09-27T19:23:20.288Z,10.90
2018-09-27T19:25:48.372Z,10.87
2018-09-27T19:28:16.577Z,10.85
2018-09-27T19:30:44.602Z,9.38
2018-09-27T19:33:12.676Z,11.23
2018-09-27T19:35:40.835Z,10.93
2018-09-27T19:38:08.884Z,11.20
2018-09-27T19:40:36.932Z,10.57
2018-09-27T19:43:05.206Z,12.97
2018-09-27T19:45:33.279Z,11.00
2018-09-27T19:48:01.335Z,11.73
2018-09-27T19:50:29.599Z,11.00
2018-09-27T19:52:57.682Z,12.57
2018-09-27T19:55:26.029Z,11.60
2018-09-27T19:57:54.108Z,12.07
2018-09-27T20:00:22.155Z,12.10
2018-09-27T20:02:50.215Z,12.47
2018-09-27T20:05:18.278Z,14.90
2018-09-27T20:07:46.364Z,14.07
2018-09-27T20:10:14.494Z,13.10
2018-09-27T20:12:42.531Z,13.53
2018-09-27T20:15:10.626Z,14.87
2018-09-27T20:17:38.662Z,15.23
2018-09-27T20:20:06.739Z,15.60
2018-09-27T20:22:34.886Z,17.23
2018-09-27T20:25:02.886Z,17.35
2018-09-27T20:27:30.996Z,19.50
2018-09-27T20:29:59.067Z,21.15
2018-09-27T20:32:27.142Z,20.10
2018-09-27T20:34:55.293Z,20.27
2018-09-27T20:37:23.288Z,22.20
2018-09-27T20:39:51.371Z,23.97
2018-09-27T20:42:19.420Z,23.40
2018-09-27T20:44:47.482Z,24.33
2018-09-27T20:47:15.555Z,23.27
2018-09-27T20:49:43.680Z,25.23
2018-09-27T20:52:11.761Z,26.70
2018-09-27T20:54:39.879Z,26.27
2018-09-27T20:57:08.270Z,27.00
2018-09-27T20:59:36.346Z,25.43
2018-09-27T21:02:04.443Z,24.37
2018-09-27T21:04:32.515Z,24.98
2018-09-27T21:07:00.597Z,27.10
2018-09-27T21:09:28.675Z,23.93
2018-09-27T21:11:56.710Z,23.70
2018-09-27T21:14:24.875Z,23.90
2018-09-27T21:16:52.948Z,22.80
2018-09-27T21:19:21.030Z,23.43
2018-09-27T21:21:49.088Z,21.83
2018-09-27T21:24:17.180Z,24.63
2018-09-27T21:26:45.235Z,23.20
2018-09-27T21:29:13.342Z,22.20
2018-09-27T21:31:41.448Z,21.83
2018-09-27T21:34:09.525Z,21.63
2018-09-27T21:36:37.588Z,19.90
2018-09-27T21:39:06.601Z,19.83
2018-09-27T21:41:34.668Z,19.43
2018-09-27T21:44:02.942Z,19.27
2018-09-27T21:46:31.011Z,17.97
2018-09-27T21:48:59.063Z,17.57
2018-09-27T21:51:27.126Z,16.40
2018-09-27T21:53:55.204Z,17.48
2018-09-27T21:56:23.302Z,16.60
2018-09-27T21:58:51.363Z,16.80
2018-09-27T22:01:19.439Z,18.15
2018-09-27T22:03:47.531Z,19.28
2018-09-27T22:06:15.607Z,17.67
2018-09-27T22:08:43.735Z,19.70
2018-09-27T22:11:12.024Z,22.30
2018-09-27T22:13:40.103Z,21.40
2018-09-27T22:16:08.178Z,22.55
2018-09-27T22:18:36.648Z,26.97
2018-09-27T22:21:04.762Z,25.27
2018-09-27T22:23:32.819Z,29.18
2018-09-27T22:26:00.959Z,28.63
2018-09-27T22:28:29.093Z,31.30
2018-09-27T22:30:57.115Z,33.50
2018-09-27T22:33:25.211Z,33.30
2018-09-27T22:35:53.319Z,39.07
2018-09-27T22:38:21.424Z,37.90
2018-09-27T22:40:49.503Z,40.40
2018-09-27T22:43:17.663Z,44.33
2018-09-27T22:45:45.742Z,44.83
2018-09-27T22:48:13.782Z,47.10
2018-09-27T22:50:41.870Z,46.90
2018-09-27T22:53:09.970Z,46.37
2018-09-27T22:55:38.064Z,47.20
2018-09-27T22:58:06.163Z,48.97
2018-09-27T23:00:34.275Z,49.33
2018-09-27T23:03:02.323Z,50.23
2018-09-27T23:05:30.399Z,50.20
2018-09-27T23:07:58.490Z,51.10
2018-09-27T23:10:26.571Z,46.40
2018-09-27T23:12:54.666Z,50.30
2018-09-27T23:15:22.747Z,50.00
2018-09-27T23:17:50.799Z,49.50
2018-09-27T23:20:18.859Z,44.20
2018-09-27T23:22:46.918Z,45.00
2018-09-27T23:25:14.991Z,44.53
2018-09-27T23:27:43.103Z,42.37
2018-09-27T23:30:11.202Z,40.60
2018-09-27T23:32:39.254Z,39.50
2018-09-27T23:35:07.483Z,37.30
2018-09-27T23:37:35.734Z,36.30
2018-09-27T23:40:03.916Z,33.53
2018-09-27T23:42:31.999Z,33.20
2018-09-27T23:45:00.067Z,32.70
2018-09-27T23:47:28.139Z,29.40
2018-09-27T23:49:57.026Z,26.47
2018-09-27T23:52:25.116Z,22.70
2018-09-27T23:54:53.402Z,17.50
2018-09-27T23:57:21.470Z,12.20
2018-09-27T23:59:49.567Z,11.45
